Time;durP1;ratioP1;P1;durP2;ratioP2;P2;SDS_P1;SDS_P2;PMS_P1;PMS_P2;Temp;Humidity;BMP_temperature;BMP_pressure;BME280_temperature;BME280_humidity;BME280_pressure;Samples;Min_cycle;Max_cycle;Signal;HPM_P1;HPM_P2
2020/12/09 00:00:11;;;;;;;38.38;23.25;;;4.30;92.10;;;;;;4994106;28;20145;-83
2020/12/09 00:02:38;;;;;;;35.42;22.05;;;4.30;92.10;;;;;;4985786;28;20028;-84
2020/12/09 00:05:07;;;;;;;33.05;20.85;;;4.30;92.10;;;;;;5012507;28;20065;-84
2020/12/09 00:07:36;;;;;;;36.35;21.38;;;4.30;92.10;;;;;;5004569;28;20026;-84
2020/12/09 00:10:02;;;;;;;;;;;4.30;92.10;;;;;;5016061;28;20030;-83
2020/12/09 00:12:31;;;;;;;50.13;28.10;;;4.30;92.00;;;;;;5008903;28;19916;-83
2020/12/09 00:15:00;;;;;;;53.20;28.73;;;4.20;92.10;;;;;;5013347;28;20030;-84
2020/12/09 00:17:28;;;;;;;49.33;28.58;;;4.20;92.10;;;;;;5010352;28;20042;-83
2020/12/09 00:19:54;;;;;;;50.70;28.83;;;4.10;92.10;;;;;;5012018;28;20051;-83
2020/12/09 00:22:19;;;;;;;47.92;28.85;;;4.10;92.10;;;;;;5037297;28;20021;-84
2020/12/09 00:24:45;;;;;;;55.40;31.80;;;4.10;92.10;;;;;;5019839;28;20017;-84
2020/12/09 00:27:11;;;;;;;55.33;32.25;;;4.10;92.00;;;;;;5036223;28;20029;-83
2020/12/09 00:29:37;;;;;;;57.75;32.05;;;4.10;92.10;;;;;;5036227;28;20516;-84
2020/12/09 00:32:04;;;;;;;48.85;28.92;;;4.00;92.00;;;;;;4984111;28;20046;-83
2020/12/09 00:34:30;;;;;;;61.58;32.47;;;4.10;92.10;;;;;;4997560;28;20106;-84
2020/12/09 00:36:56;;;;;;;57.65;32.33;;;4.10;92.10;;;;;;5016181;28;20030;-84
2020/12/09 00:39:21;;;;;;;52.15;30.15;;;4.00;92.00;;;;;;5016779;28;20064;-84
2020/12/09 00:41:47;;;;;;;59.08;32.38;;;4.00;92.10;;;;;;5015457;28;20057;-84
2020/12/09 00:44:12;;;;;;;59.63;32.58;;;4.00;92.10;;;;;;4999513;28;20030;-83
2020/12/09 00:46:38;;;;;;;61.80;33.80;;;4.00;92.10;;;;;;5015808;28;20026;-84
2020/12/09 00:49:03;;;;;;;57.53;32.50;;;4.00;92.10;;;;;;5016012;28;20030;-83
2020/12/09 00:51:29;;;;;;;60.85;34.75;;;4.00;92.10;;;;;;4999673;28;20128;-84
2020/12/09 00:53:55;;;;;;;58.05;33.85;;;4.00;92.00;;;;;;4999381;28;20080;-84
2020/12/09 00:56:20;;;;;;;61.47;34.25;;;4.00;92.00;;;;;;5015954;28;20041;-84
2020/12/09 00:58:46;;;;;;;57.95;33.92;;;3.90;92.00;;;;;;5015554;28;20069;-83
2020/12/09 01:01:12;;;;;;;69.82;36.25;;;3.90;92.00;;;;;;4999497;28;20033;-83
2020/12/09 01:03:38;;;;;;;54.63;34.38;;;3.90;91.90;;;;;;5015634;28;20124;-84
2020/12/09 01:06:05;;;;;;;61.20;34.70;;;3.90;91.90;;;;;;5015443;28;20030;-84
2020/12/09 01:08:32;;;;;;;58.33;34.30;;;3.90;91.90;;;;;;5016835;28;20467;-84
2020/12/09 01:10:58;;;;;;;67.43;35.50;;;3.90;91.90;;;;;;5015634;28;20041;-84
2020/12/09 01:13:23;;;;;;;58.20;33.58;;;3.90;91.90;;;;;;5015198;28;20034;-84
2020/12/09 01:15:49;;;;;;;62.80;35.30;;;3.80;91.90;;;;;;4998879;28;20128;-83
2020/12/09 01:18:15;;;;;;;58.38;34.75;;;3.80;91.90;;;;;;5014769;28;20032;-83
2020/12/09 01:20:41;;;;;;;69.45;36.83;;;3.80;91.80;;;;;;5015442;28;20034;-84
2020/12/09 01:23:07;;;;;;;63.38;35.78;;;3.80;91.80;;;;;;5015283;28;20037;-84
2020/12/09 01:25:32;;;;;;;59.03;33.83;;;3.90;91.80;;;;;;4998983;28;20030;-84
2020/12/09 01:27:59;;;;;;;57.38;34.40;;;3.90;91.80;;;;;;5014953;28;20037;-84
2020/12/09 01:30:25;;;;;;;55.88;33.38;;;3.90;91.70;;;;;;4995452;28;20049;-84
2020/12/09 01:32:50;;;;;;;51.00;31.35;;;3.90;91.70;;;;;;4995469;28;20030;-83
2020/12/09 01:35:16;;;;;;;55.63;32.45;;;3.90;91.70;;;;;;4995440;28;20097;-84
2020/12/09 01:37:42;;;;;;;50.58;31.23;;;3.90;91.70;;;;;;4982315;28;20084;-83
2020/12/09 01:40:07;;;;;;;54.20;31.20;;;4.00;91.60;;;;;;4998392;28;20064;-83
2020/12/09 01:42:33;;;;;;;53.30;31.35;;;4.00;91.60;;;;;;5021061;28;20076;-84
2020/12/09 01:44:58;;;;;;;67.40;35.90;;;4.00;91.60;;;;;;5040696;28;20025;-84
2020/12/09 01:47:25;;;;;;;51.55;32.92;;;4.00;91.60;;;;;;5037829;28;20367;-83
2020/12/09 01:49:51;;;;;;;50.38;31.00;;;3.90;91.60;;;;;;5021176;28;20032;-83
2020/12/09 01:52:17;;;;;;;50.30;31.73;;;4.00;91.70;;;;;;5021236;28;20029;-84
2020/12/09 01:54:42;;;;;;;51.83;31.48;;;4.00;91.70;;;;;;5055423;28;20032;-84
2020/12/09 01:57:10;;;;;;;54.72;31.98;;;3.90;91.70;;;;;;5055465;28;20061;-84
2020/12/09 01:59:39;;;;;;;52.88;32.13;;;3.90;91.70;;;;;;5055266;28;20029;-84
2020/12/09 02:02:05;;;;;;;52.97;30.43;;;3.90;91.60;;;;;;5037322;28;20108;-84
2020/12/09 02:04:32;;;;;;;51.00;30.13;;;3.90;91.90;;;;;;5037529;28;20477;-84
2020/12/09 02:06:58;;;;;;;47.78;30.48;;;3.80;91.60;;;;;;5037738;28;20064;-83
2020/12/09 02:09:24;;;;;;;58.78;32.22;;;3.80;91.60;;;;;;5021138;28;20063;-84
2020/12/09 02:11:51;;;;;;;59.00;32.05;;;3.70;91.60;;;;;;5037300;28;20486;-84
2020/12/09 02:14:17;;;;;;;54.30;31.92;;;3.70;91.60;;;;;;5037408;28;20029;-84
2020/12/09 02:16:46;;;;;;;56.50;31.65;;;3.60;91.60;;;;;;5033215;28;20136;-83
2020/12/09 02:19:12;;;;;;;;;;;3.60;91.60;;;;;;5002058;28;20033;-84
2020/12/09 02:21:37;;;;;;;51.92;30.45;;;3.60;91.50;;;;;;5017547;28;19912;-83
2020/12/09 02:24:03;;;;;;;51.22;30.48;;;3.50;91.60;;;;;;5001233;28;20033;-84
2020/12/09 02:26:29;;;;;;;51.53;30.25;;;3.50;91.60;;;;;;5017489;28;20031;-84
2020/12/09 02:28:55;;;;;;;54.97;31.40;;;3.50;91.90;;;;;;5002812;28;20041;-84
2020/12/09 02:31:22;;;;;;;47.67;28.25;;;3.40;91.60;;;;;;5036394;28;20036;-83
2020/12/09 02:33:47;;;;;;;45.25;27.67;;;3.30;91.60;;;;;;5025245;28;20033;-83
2020/12/09 02:36:14;;;;;;;49.20;30.48;;;3.30;91.60;;;;;;5053595;28;20870;-84
2020/12/09 02:38:40;;;;;;;47.25;28.17;;;3.20;91.70;;;;;;5054776;28;20544;-84
2020/12/09 02:41:06;;;;;;;46.47;28.60;;;3.20;91.70;;;;;;5054708;28;20095;-83
2020/12/09 02:43:31;;;;;;;58.63;30.85;;;3.10;91.70;;;;;;5054539;28;20045;-84
2020/12/09 02:45:57;;;;;;;71.45;32.95;;;3.10;91.70;;;;;;5054744;28;20029;-83
2020/12/09 02:48:23;;;;;;;96.30;38.83;;;3.10;91.70;;;;;;5036632;28;20029;-84
2020/12/09 02:50:48;;;;;;;83.13;37.53;;;3.10;91.60;;;;;;5036754;28;20048;-84
2020/12/09 02:53:14;;;;;;;93.60;39.05;;;3.10;91.90;;;;;;5036665;28;20500;-84
2020/12/09 02:55:40;;;;;;;82.25;36.20;;;3.00;91.60;;;;;;5054299;28;20438;-84
2020/12/09 02:58:05;;;;;;;81.30;34.83;;;3.00;91.60;;;;;;5049859;28;20033;-84
2020/12/09 03:00:31;;;;;;;78.22;37.42;;;3.10;91.60;;;;;;5036727;28;20394;-83
2020/12/09 03:02:57;;;;;;;82.85;36.35;;;3.10;91.60;;;;;;5036616;28;20363;-84
2020/12/09 03:05:22;;;;;;;100.82;35.92;;;3.10;91.50;;;;;;5036550;28;20505;-84
2020/12/09 03:07:48;;;;;;;86.82;34.80;;;3.10;91.50;;;;;;5053924;28;20485;-83
2020/12/09 03:10:14;;;;;;;75.72;31.50;;;3.00;91.40;;;;;;5036672;28;20482;-84
2020/12/09 03:12:39;;;;;;;96.65;33.50;;;3.00;91.30;;;;;;5052805;28;20389;-83
2020/12/09 03:15:05;;;;;;;86.68;30.75;;;3.00;91.20;;;;;;5052855;28;20115;-84
2020/12/09 03:17:30;;;;;;;72.07;28.85;;;2.90;91.20;;;;;;5036255;28;20457;-84
2020/12/09 03:19:56;;;;;;;55.08;27.88;;;2.90;91.30;;;;;;5044624;28;20117;-83
2020/12/09 03:22:22;;;;;;;74.30;28.60;;;2.90;91.30;;;;;;5033844;28;20029;-84
2020/12/09 03:24:47;;;;;;;65.82;27.58;;;2.90;91.20;;;;;;5017156;28;20448;-84
2020/12/09 03:27:13;;;;;;;88.95;27.65;;;2.80;91.10;;;;;;5016415;28;20032;-84
2020/12/09 03:29:39;;;;;;;63.33;24.88;;;2.80;91.20;;;;;;5052717;28;20086;-84
2020/12/09 03:32:05;;;;;;;60.22;24.85;;;2.80;91.10;;;;;;5052939;28;20033;-84
2020/12/09 03:34:30;;;;;;;82.05;27.25;;;2.70;91.10;;;;;;5036116;28;20123;-84
2020/12/09 03:36:56;;;;;;;57.15;25.20;;;2.70;91.10;;;;;;5019579;28;20037;-84
2020/12/09 03:39:22;;;;;;;187.43;29.88;;;2.60;91.00;;;;;;5053749;28;20075;-84
2020/12/09 03:41:47;;;;;;;94.53;25.10;;;2.60;91.30;;;;;;5034991;28;20048;-83
2020/12/09 03:44:13;;;;;;;53.97;25.33;;;2.50;91.00;;;;;;5052473;28;20026;-84
2020/12/09 03:46:39;;;;;;;66.60;25.25;;;2.50;91.10;;;;;;5027422;28;20025;-84
2020/12/09 03:49:04;;;;;;;98.78;23.42;;;2.40;91.10;;;;;;5035365;28;20162;-84
2020/12/09 03:51:30;;;;;;;63.95;25.92;;;2.40;91.40;;;;;;5039172;28;20025;-84
2020/12/09 03:53:56;;;;;;;53.60;24.98;;;2.40;91.00;;;;;;5034948;28;20033;-84
2020/12/09 03:56:21;;;;;;;48.22;23.83;;;2.40;91.00;;;;;;5041107;28;20033;-84
2020/12/09 03:58:47;;;;;;;83.10;26.23;;;2.40;91.00;;;;;;5044100;28;20033;-83
2020/12/09 04:01:13;;;;;;;65.55;26.10;;;2.30;91.00;;;;;;5052308;28;20029;-84
2020/12/09 04:03:38;;;;;;;116.60;28.45;;;2.30;91.00;;;;;;5038647;28;20025;-83
2020/12/09 04:06:04;;;;;;;74.45;26.33;;;2.30;91.00;;;;;;5025511;28;20025;-83
2020/12/09 04:08:30;;;;;;;57.95;24.50;;;2.30;90.90;;;;;;5046454;28;20028;-84
2020/12/09 04:10:55;;;;;;;103.03;28.65;;;2.30;90.90;;;;;;5046211;28;20029;-84
2020/12/09 04:13:21;;;;;;;66.93;25.98;;;2.20;91.00;;;;;;5034657;28;20523;-84
2020/12/09 04:15:47;;;;;;;103.43;29.92;;;2.20;91.00;;;;;;5052672;28;20049;-84
2020/12/09 04:18:12;;;;;;;80.20;29.00;;;2.20;91.00;;;;;;5035442;28;20060;-83
2020/12/09 04:20:38;;;;;;;69.18;26.58;;;2.20;91.00;;;;;;5035605;28;20025;-84
2020/12/09 04:23:04;;;;;;;104.82;25.85;;;2.20;91.00;;;;;;5053372;28;20040;-84
2020/12/09 04:25:29;;;;;;;87.28;29.08;;;2.20;91.10;;;;;;5035397;28;20051;-84
2020/12/09 04:27:55;;;;;;;62.38;25.13;;;2.20;91.00;;;;;;5052985;28;20028;-84
2020/12/09 04:30:20;;;;;;;102.25;27.67;;;2.20;91.00;;;;;;5045045;28;20068;-84
2020/12/09 04:32:46;;;;;;;103.32;28.25;;;2.20;91.00;;;;;;5018742;28;20136;-83
2020/12/09 04:35:12;;;;;;;119.03;27.70;;;2.20;91.00;;;;;;5039991;28;20029;-84
2020/12/09 04:37:39;;;;;;;70.15;25.85;;;2.20;91.00;;;;;;5053184;28;20028;-83
2020/12/09 04:40:05;;;;;;;60.88;24.92;;;2.20;91.00;;;;;;5018987;28;20036;-84
2020/12/09 04:42:31;;;;;;;69.82;26.58;;;2.20;91.10;;;;;;5052090;28;20049;-84
2020/12/09 04:44:57;;;;;;;85.57;26.42;;;2.10;91.10;;;;;;5045163;28;20029;-84
2020/12/09 04:47:32;;;;;;;81.57;26.85;;;2.10;91.10;;;;;;5035188;28;20129;-84
2020/12/09 04:50:12;;;;;;;65.63;24.80;;;2.10;91.20;;;;;;5035350;28;20025;-84
2020/12/09 04:52:46;;;;;;;73.70;25.90;;;2.10;91.20;;;;;;5035658;28;20028;-84
2020/12/09 04:55:16;;;;;;;56.13;25.73;;;2.10;91.20;;;;;;5056742;28;20036;-84
2020/12/09 04:58:10;;;;;;;122.35;27.95;;;2.20;91.30;;;;;;5050490;28;20506;-84
2020/12/09 05:00:43;;;;;;;69.72;26.10;;;2.20;91.30;;;;;;5056266;28;20367;-84
2020/12/09 05:03:16;;;;;;;78.00;28.23;;;2.20;91.30;;;;;;5056435;28;20025;-84
2020/12/09 05:05:42;;;;;;;64.18;26.58;;;2.20;91.30;;;;;;5038528;28;20024;-84
2020/12/09 05:08:20;;;;;;;77.95;28.10;;;2.20;91.60;;;;;;5022126;28;20033;-84
2020/12/09 05:10:48;;;;;;;55.47;27.80;;;2.20;91.40;;;;;;5038729;28;20021;-84
2020/12/09 05:13:27;;;;;;;87.30;29.13;;;2.20;91.30;;;;;;5038593;28;20029;-84
2020/12/09 05:15:57;;;;;;;118.83;30.97;;;2.30;91.40;;;;;;5021335;28;20034;-84
2020/12/09 05:18:42;;;;;;;77.53;29.30;;;2.30;91.30;;;;;;5055164;28;20287;-84
2020/12/09 05:21:16;;;;;;;60.95;29.00;;;2.30;91.40;;;;;;5055256;28;20027;-84
2020/12/09 05:23:47;;;;;;;67.82;30.30;;;2.20;91.40;;;;;;5055070;28;20025;-84
2020/12/09 05:26:27;;;;;;;59.35;28.65;;;2.20;91.40;;;;;;5055152;28;20067;-83
2020/12/09 05:29:10;;;;;;;55.45;27.55;;;2.30;91.50;;;;;;5056217;28;20021;-84
2020/12/09 05:31:37;;;;;;;55.85;28.17;;;2.30;91.50;;;;;;5046776;28;20031;-84
2020/12/09 05:34:23;;;;;;;58.72;28.90;;;2.30;91.50;;;;;;5023148;28;20363;-83
2020/12/09 05:36:50;;;;;;;44.80;26.23;;;2.30;91.50;;;;;;5018443;28;20549;-84
2020/12/09 05:39:16;;;;;;;53.00;29.63;;;2.30;91.40;;;;;;5034958;28;20597;-83
2020/12/09 05:41:42;;;;;;;48.88;29.17;;;2.30;91.40;;;;;;5038294;28;20052;-84
2020/12/09 05:44:07;;;;;;;74.97;31.67;;;2.30;91.40;;;;;;5016176;28;20022;-84
2020/12/09 05:46:33;;;;;;;48.88;28.25;;;2.30;91.50;;;;;;4998790;28;20041;-84
2020/12/09 05:48:59;;;;;;;55.22;30.60;;;2.30;91.40;;;;;;5016022;28;20034;-84
2020/12/09 05:51:25;;;;;;;72.85;33.70;;;2.30;91.40;;;;;;4995224;28;20034;-84
2020/12/09 05:53:51;;;;;;;79.63;35.95;;;2.30;91.40;;;;;;4996479;28;20049;-84
2020/12/09 05:56:21;;;;;;;65.03;34.28;;;2.30;91.30;;;;;;4998175;28;20038;-84
2020/12/09 05:58:49;;;;;;;58.55;31.63;;;2.20;91.40;;;;;;5014407;28;20121;-84
2020/12/09 06:01:20;;;;;;;69.07;36.13;;;2.20;91.50;;;;;;5013299;28;20493;-83
2020/12/09 06:03:49;;;;;;;68.90;35.88;;;2.20;91.60;;;;;;5011358;28;20030;-84
2020/12/09 06:06:20;;;;;;;69.15;35.28;;;2.10;91.60;;;;;;5010448;28;20368;-84
2020/12/09 06:08:47;;;;;;;72.55;35.53;;;2.10;91.70;;;;;;5011430;28;20034;-84
2020/12/09 06:11:15;;;;;;;54.75;32.25;;;2.10;91.80;;;;;;5011280;28;20034;-84
2020/12/09 06:13:42;;;;;;;67.82;36.05;;;2.10;91.80;;;;;;4995931;28;20027;-84
2020/12/09 06:16:09;;;;;;;74.50;35.50;;;2.10;91.80;;;;;;5014367;28;20022;-84
2020/12/09 06:18:36;;;;;;;87.07;39.03;;;2.10;91.80;;;;;;5014113;28;20025;-84
2020/12/09 06:21:03;;;;;;;81.75;38.25;;;2.10;91.70;;;;;;5014235;28;20025;-84
2020/12/09 06:23:30;;;;;;;74.82;35.03;;;2.10;91.70;;;;;;4994642;28;20054;-84
2020/12/09 06:25:58;;;;;;;74.97;36.85;;;2.10;91.70;;;;;;5010898;28;20045;-84
2020/12/09 06:28:26;;;;;;;61.58;32.38;;;2.00;91.80;;;;;;5007404;28;20467;-84
2020/12/09 06:30:55;;;;;;;58.42;31.35;;;2.00;91.80;;;;;;5014957;28;20038;-84
2020/12/09 06:33:41;;;;;;;61.17;30.38;;;2.00;91.80;;;;;;5014989;28;20128;-79
2020/12/09 06:36:11;;;;;;;66.57;32.55;;;2.00;91.80;;;;;;5013104;28;20096;-80
2020/12/09 06:38:36;;;;;;;;;;;2.10;91.80;;;;;;4997330;28;20034;-79
2020/12/09 06:41:04;;;;;;;76.15;35.60;;;2.00;91.70;;;;;;5014780;28;19906;-79
2020/12/09 06:43:31;;;;;;;55.78;24.85;;;2.00;91.70;;;;;;5013554;28;20034;-80
2020/12/09 06:45:56;;;;;;;66.97;31.77;;;2.00;91.70;;;;;;5014350;28;20026;-79
2020/12/09 06:48:24;;;;;;;61.40;30.98;;;2.00;91.80;;;;;;4997232;28;20605;-79
2020/12/09 06:50:50;;;;;;;72.80;35.55;;;2.00;91.80;;;;;;5012994;28;20108;-79
2020/12/09 06:53:20;;;;;;;66.18;33.28;;;1.90;91.60;;;;;;4996992;28;20068;-79
2020/12/09 06:55:48;;;;;;;80.97;36.75;;;1.90;91.70;;;;;;5012908;28;20295;-79
2020/12/09 06:58:27;;;;;;;79.13;37.10;;;1.80;91.70;;;;;;4996841;28;20026;-80
2020/12/09 07:01:09;;;;;;;83.10;37.28;;;1.80;91.70;;;;;;5012971;28;20030;-79
2020/12/09 07:03:37;;;;;;;75.65;34.25;;;1.70;91.70;;;;;;4996619;28;20030;-80
2020/12/09 07:06:21;;;;;;;61.70;32.72;;;1.70;91.70;;;;;;5012245;28;20022;-79
2020/12/09 07:08:47;;;;;;;68.10;32.78;;;1.60;91.90;;;;;;5012835;28;20030;-80
2020/12/09 07:11:13;;;;;;;59.13;31.63;;;1.60;91.90;;;;;;4993861;28;20042;-86
2020/12/09 07:13:39;;;;;;;62.03;30.75;;;1.60;91.90;;;;;;5010085;28;20121;-85
2020/12/09 07:16:06;;;;;;;62.83;32.10;;;1.70;91.90;;;;;;5011493;28;20049;-86
2020/12/09 07:18:36;;;;;;;75.47;36.40;;;1.70;91.90;;;;;;5013496;28;20026;-86
2020/12/09 07:21:05;;;;;;;63.50;31.48;;;1.80;91.90;;;;;;5014596;28;20021;-86
2020/12/09 07:23:31;;;;;;;67.22;31.98;;;1.80;91.80;;;;;;5000376;28;20105;-87
2020/12/09 07:25:59;;;;;;;68.25;33.95;;;1.90;91.80;;;;;;4999136;28;20061;-86
2020/12/09 07:28:31;;;;;;;59.53;31.70;;;1.90;91.70;;;;;;4997281;28;20029;-86
2020/12/09 07:31:03;;;;;;;61.28;31.80;;;2.00;91.70;;;;;;4997883;28;20137;-86
2020/12/09 07:33:29;;;;;;;65.63;32.00;;;2.00;91.80;;;;;;5014288;28;20033;-87
2020/12/09 07:36:00;;;;;;;56.67;29.25;;;2.00;91.70;;;;;;4996615;28;20034;-86
2020/12/09 07:38:26;;;;;;;61.88;33.20;;;2.10;91.70;;;;;;5014411;28;20029;-86
2020/12/09 07:40:58;;;;;;;82.53;36.15;;;2.10;91.70;;;;;;5011473;28;20026;-86
2020/12/09 07:43:23;;;;;;;64.03;32.33;;;2.10;91.60;;;;;;5050387;28;20049;-85
2020/12/09 07:45:49;;;;;;;65.00;32.97;;;2.10;91.60;;;;;;5024482;28;20029;-85
2020/12/09 07:48:16;;;;;;;72.63;35.85;;;2.10;91.60;;;;;;5033170;28;20469;-86
2020/12/09 07:50:49;;;;;;;61.63;31.67;;;2.20;91.60;;;;;;5016316;28;20029;-85
2020/12/09 07:53:15;;;;;;;61.45;32.85;;;2.20;91.70;;;;;;5032800;28;20033;-85
2020/12/09 07:55:41;;;;;;;65.10;34.58;;;2.20;91.60;;;;;;5016386;28;20490;-85
2020/12/09 07:58:11;;;;;;;65.68;34.20;;;2.30;91.60;;;;;;5037248;28;20037;-86
2020/12/09 08:00:39;;;;;;;61.53;33.15;;;2.30;91.60;;;;;;5028232;28;20025;-86
2020/12/09 08:03:05;;;;;;;64.82;34.42;;;2.30;91.60;;;;;;5032427;28;20033;-85
2020/12/09 08:05:38;;;;;;;60.95;32.17;;;2.30;91.50;;;;;;5016175;28;20026;-86
2020/12/09 08:08:12;;;;;;;59.00;33.17;;;2.40;91.60;;;;;;4997073;28;20475;-85
2020/12/09 08:10:38;;;;;;;65.30;35.80;;;2.40;91.50;;;;;;5040720;28;20029;-85
2020/12/09 08:13:20;;;;;;;64.88;34.67;;;2.40;91.50;;;;;;5016008;28;20026;-85
2020/12/09 08:16:01;;;;;;;64.20;35.13;;;2.50;91.50;;;;;;5050925;28;20025;-85
2020/12/09 08:18:27;;;;;;;62.90;35.08;;;2.50;91.50;;;;;;5049354;28;20482;-86
2020/12/09 08:20:54;;;;;;;74.70;38.22;;;2.50;91.50;;;;;;5016123;28;20034;-85
2020/12/09 08:23:21;;;;;;;64.18;36.05;;;2.50;91.50;;;;;;5033446;28;20144;-85
2020/12/09 08:25:56;;;;;;;65.95;37.72;;;2.50;91.40;;;;;;5032209;28;20036;-86
2020/12/09 08:28:25;;;;;;;66.50;36.65;;;2.50;91.40;;;;;;5033662;28;20474;-87
2020/12/09 08:30:52;;;;;;;;;;;2.60;91.40;;;;;;5036849;28;20502;-86
2020/12/09 08:33:23;;;;;;;70.70;37.42;;;2.60;91.40;;;;;;5039397;28;19994;-87
2020/12/09 08:36:09;;;;;;;66.03;37.13;;;2.60;91.30;;;;;;5056207;28;20032;-84
2020/12/09 08:38:38;;;;;;;73.22;38.65;;;2.60;91.30;;;;;;5038104;28;20029;-81
2020/12/09 08:41:07;;;;;;;82.88;42.83;;;2.50;91.30;;;;;;5038321;28;20028;-81
2020/12/09 08:43:34;;;;;;;71.32;39.63;;;2.50;91.20;;;;;;5056520;28;20436;-82
2020/12/09 08:46:02;;;;;;;75.88;41.00;;;2.50;91.20;;;;;;5038713;28;21947;-82
2020/12/09 08:48:27;;;;;;;68.47;40.08;;;2.50;91.20;;;;;;5038494;28;20051;-82
2020/12/09 08:50:53;;;;;;;71.53;41.80;;;2.60;91.50;;;;;;5038702;28;20027;-82
2020/12/09 08:53:20;;;;;;;77.20;42.30;;;2.60;91.20;;;;;;5056473;28;20025;-82
2020/12/09 08:55:47;;;;;;;66.53;37.38;;;2.60;91.20;;;;;;5021976;28;20033;-82
2020/12/09 08:58:14;;;;;;;73.18;39.85;;;2.70;91.30;;;;;;5018178;28;20035;-82
2020/12/09 09:00:41;;;;;;;71.90;40.45;;;2.70;91.20;;;;;;5018723;28;20575;-79
2020/12/09 09:03:12;;;;;;;72.82;39.72;;;2.70;91.10;;;;;;5032260;28;20034;-79
2020/12/09 09:05:40;;;;;;;64.25;38.42;;;2.70;91.10;;;;;;5018349;28;20017;-79
2020/12/09 09:08:08;;;;;;;66.50;39.40;;;2.70;91.10;;;;;;5034988;28;20029;-78
2020/12/09 09:10:34;;;;;;;68.38;39.90;;;2.70;91.00;;;;;;5036038;28;20028;-79
2020/12/09 09:12:59;;;;;;;64.57;38.95;;;2.70;91.10;;;;;;5029795;28;20082;-79
2020/12/09 09:15:25;;;;;;;62.97;37.03;;;2.70;91.00;;;;;;5021540;28;20119;-79
2020/12/09 09:17:51;;;;;;;68.35;38.72;;;2.70;91.00;;;;;;5021465;28;20036;-79
2020/12/09 09:20:17;;;;;;;66.85;39.28;;;2.70;91.00;;;;;;5005227;28;20029;-79
2020/12/09 09:22:43;;;;;;;67.60;39.38;;;2.70;91.00;;;;;;5020587;28;20029;-79
2020/12/09 09:25:09;;;;;;;67.28;39.58;;;2.70;91.00;;;;;;5055884;28;20032;-79
2020/12/09 09:27:35;;;;;;;64.93;38.08;;;2.70;90.90;;;;;;5038064;28;20025;-79
2020/12/09 09:30:01;;;;;;;67.18;37.55;;;2.70;91.00;;;;;;5015492;28;20120;-79
2020/12/09 09:32:26;;;;;;;68.03;37.45;;;2.80;91.00;;;;;;5039909;28;20103;-79
2020/12/09 09:34:53;;;;;;;61.30;35.83;;;2.80;90.90;;;;;;5021289;28;20144;-82
2020/12/09 09:37:21;;;;;;;66.75;38.80;;;2.80;90.90;;;;;;5037785;28;20546;-81
2020/12/09 09:39:48;;;;;;;70.55;40.00;;;2.80;90.80;;;;;;5020105;28;20030;-82
2020/12/09 09:42:13;;;;;;;62.83;36.30;;;2.80;90.90;;;;;;5037514;28;20056;-82
2020/12/09 09:44:39;;;;;;;65.22;37.38;;;2.80;90.90;;;;;;5004723;28;20025;-82
2020/12/09 09:47:05;;;;;;;59.85;35.05;;;2.80;90.80;;;;;;5061024;28;20392;-82
2020/12/09 09:49:30;;;;;;;70.63;39.60;;;2.90;90.70;;;;;;5057257;28;20024;-80
2020/12/09 09:51:56;;;;;;;61.58;35.15;;;2.90;90.60;;;;;;5043981;28;20385;-80
2020/12/09 09:54:22;;;;;;;64.35;37.00;;;2.90;90.60;;;;;;5036808;28;20082;-80
2020/12/09 09:56:49;;;;;;;66.18;36.53;;;2.90;90.60;;;;;;5020776;28;20481;-80
2020/12/09 09:59:15;;;;;;;64.90;37.35;;;2.90;90.60;;;;;;5055324;28;20067;-80
2020/12/09 10:01:41;;;;;;;62.00;35.53;;;2.90;90.50;;;;;;5054496;28;20025;-80
2020/12/09 10:04:08;;;;;;;62.25;35.75;;;3.00;90.40;;;;;;5050060;28;20063;-81
2020/12/09 10:06:35;;;;;;;60.25;34.78;;;3.00;90.40;;;;;;5055076;28;20155;-81
2020/12/09 10:09:02;;;;;;;60.03;34.53;;;3.00;90.50;;;;;;5037529;28;20094;-81
2020/12/09 10:11:28;;;;;;;60.42;35.70;;;3.00;90.40;;;;;;5053821;28;20025;-81
2020/12/09 10:13:54;;;;;;;59.28;35.72;;;3.00;90.40;;;;;;5037449;28;20113;-82
2020/12/09 10:16:23;;;;;;;62.85;35.67;;;3.00;90.40;;;;;;5053678;28;20029;-82
2020/12/09 10:18:49;;;;;;;67.38;37.65;;;3.10;90.40;;;;;;5037414;28;20490;-82
2020/12/09 10:21:21;;;;;;;68.80;38.30;;;3.10;90.30;;;;;;5054034;28;20029;-82
2020/12/09 10:23:47;;;;;;;64.30;34.92;;;3.10;90.30;;;;;;5036975;28;20036;-82
2020/12/09 10:26:12;;;;;;;65.47;37.35;;;3.10;90.30;;;;;;5037089;28;20029;-82
2020/12/09 10:28:38;;;;;;;63.50;35.63;;;3.10;90.00;;;;;;5020662;28;20029;-80
2020/12/09 10:31:04;;;;;;;67.30;36.08;;;3.10;90.00;;;;;;5053519;28;20561;-80
2020/12/09 10:33:29;;;;;;;67.10;35.80;;;3.20;90.10;;;;;;5036820;28;20041;-81
2020/12/09 10:35:55;;;;;;;64.20;35.88;;;3.20;90.10;;;;;;5053932;28;20465;-81
2020/12/09 10:38:20;;;;;;;59.58;34.17;;;3.30;90.00;;;;;;5054182;28;20039;-81
2020/12/09 10:40:46;;;;;;;69.40;38.92;;;3.30;90.00;;;;;;5036785;28;20493;-81
2020/12/09 10:43:13;;;;;;;58.05;33.38;;;3.30;90.00;;;;;;5054009;28;20048;-81
2020/12/09 10:45:39;;;;;;;58.38;34.22;;;3.40;90.00;;;;;;5054285;28;20021;-81
2020/12/09 10:48:04;;;;;;;58.65;34.88;;;3.40;90.00;;;;;;5036586;28;20179;-81
2020/12/09 10:50:30;;;;;;;59.28;34.10;;;3.50;89.60;;;;;;5019787;28;20029;-82
2020/12/09 10:52:56;;;;;;;59.90;33.95;;;3.50;89.80;;;;;;5019567;28;20025;-81
2020/12/09 10:55:23;;;;;;;55.50;34.13;;;3.60;89.80;;;;;;5019941;28;20040;-82
2020/12/09 10:57:49;;;;;;;55.50;31.85;;;3.70;89.50;;;;;;5025234;28;20032;-81
2020/12/09 11:00:14;;;;;;;55.97;32.90;;;3.70;89.30;;;;;;5016627;28;20025;-81
2020/12/09 11:02:40;;;;;;;56.75;33.30;;;3.70;89.10;;;;;;5016637;28;20033;-81
2020/12/09 11:05:06;;;;;;;59.55;34.95;;;3.80;88.80;;;;;;5028280;28;20029;-81
2020/12/09 11:07:31;;;;;;;56.50;34.28;;;3.80;88.90;;;;;;5020219;28;20021;-81
2020/12/09 11:09:57;;;;;;;55.08;33.03;;;3.90;88.90;;;;;;5035846;28;20490;-82
2020/12/09 11:12:22;;;;;;;56.65;34.40;;;3.90;88.80;;;;;;5053789;28;20362;-81
2020/12/09 11:14:49;;;;;;;53.60;31.95;;;4.00;88.80;;;;;;5019071;28;20036;-81
2020/12/09 11:17:15;;;;;;;58.20;34.63;;;4.00;88.70;;;;;;5017782;28;20031;-82
2020/12/09 11:19:41;;;;;;;60.95;33.70;;;4.00;88.70;;;;;;5042136;28;20032;-81
2020/12/09 11:22:06;;;;;;;53.80;33.60;;;4.00;88.60;;;;;;5035049;28;20497;-81
2020/12/09 11:24:32;;;;;;;56.42;33.33;;;4.00;88.80;;;;;;5035465;28;20037;-82
2020/12/09 11:27:01;;;;;;;52.47;33.45;;;4.00;88.90;;;;;;5036145;28;20025;-81
2020/12/09 11:29:26;;;;;;;54.10;33.33;;;4.00;88.70;;;;;;5035426;28;20028;-82
2020/12/09 11:31:55;;;;;;;58.03;35.30;;;4.00;88.60;;;;;;5018831;28;20127;-82
2020/12/09 11:34:23;;;;;;;53.85;33.33;;;4.10;88.20;;;;;;5032686;28;20036;-81
2020/12/09 11:36:48;;;;;;;50.08;32.47;;;4.10;88.30;;;;;;5035954;28;20028;-81
2020/12/09 11:39:14;;;;;;;53.45;32.75;;;4.10;88.30;;;;;;5039355;28;20032;-82
2020/12/09 11:41:40;;;;;;;52.05;33.72;;;4.20;88.00;;;;;;5035218;28;20056;-85
2020/12/09 11:44:06;;;;;;;59.80;36.78;;;4.30;87.30;;;;;;5019095;28;20040;-83
2020/12/09 11:46:31;;;;;;;51.58;33.83;;;4.30;86.70;;;;;;5053331;28;20474;-83
2020/12/09 11:48:57;;;;;;;59.67;35.92;;;4.50;86.50;;;;;;5003712;28;20041;-83
2020/12/09 11:51:24;;;;;;;56.20;34.97;;;4.50;85.70;;;;;;5031985;28;20033;-78
2020/12/09 11:53:49;;;;;;;55.05;34.28;;;4.50;86.00;;;;;;5033128;28;20075;-78
2020/12/09 11:56:23;;;;;;;62.85;36.97;;;4.40;86.40;;;;;;5033587;28;20030;-78
2020/12/09 11:58:49;;;;;;;58.45;37.08;;;4.40;86.90;;;;;;5044181;28;20061;-78
2020/12/09 12:01:15;;;;;;;66.13;40.00;;;4.30;86.70;;;;;;5036667;28;20033;-78
2020/12/09 12:03:41;;;;;;;68.13;40.58;;;4.30;86.90;;;;;;5018700;28;20056;-78
2020/12/09 12:06:06;;;;;;;63.70;38.63;;;4.30;86.40;;;;;;5035278;28;20466;-78
2020/12/09 12:08:32;;;;;;;65.07;39.63;;;4.20;86.80;;;;;;5035789;28;20033;-78
2020/12/09 12:10:58;;;;;;;64.07;39.60;;;4.20;87.00;;;;;;5035824;28;20040;-77
2020/12/09 12:13:23;;;;;;;62.80;37.20;;;4.20;87.20;;;;;;5052377;28;20037;-78
2020/12/09 12:15:49;;;;;;;61.78;37.45;;;4.40;86.70;;;;;;5018360;28;20366;-78
2020/12/09 12:18:14;;;;;;;59.08;36.83;;;4.70;86.00;;;;;;5018703;28;20037;-78
2020/12/09 12:20:40;;;;;;;60.42;37.15;;;4.70;85.70;;;;;;5035198;28;20103;-78
2020/12/09 12:23:06;;;;;;;55.33;33.83;;;4.90;84.90;;;;;;5018646;28;20497;-78
2020/12/09 12:25:31;;;;;;;53.20;33.97;;;5.10;83.90;;;;;;5018714;28;20436;-78
2020/12/09 12:27:57;;;;;;;51.13;32.05;;;5.60;81.80;;;;;;5035236;28;20104;-78
2020/12/09 12:30:22;;;;;;;47.22;31.17;;;6.20;78.90;;;;;;5035165;28;20482;-78
2020/12/09 12:32:48;;;;;;;44.72;29.48;;;6.60;77.70;;;;;;5035020;28;20083;-78
2020/12/09 12:35:14;;;;;;;48.53;30.63;;;6.40;78.30;;;;;;5052915;28;20083;-78
2020/12/09 12:37:39;;;;;;;46.13;30.92;;;6.20;79.20;;;;;;5053080;28;20140;-83